sensor_id;sensor_type;location;lat;lon;timestamp;pressure;altitude;pressure_sealevel;temperature;humidity
59103;BME280;43999;51.660;5.616;2023-07-20T00:02:13;101188.19;;;17.23;100.00
59103;BME280;43999;51.660;5.616;2023-07-20T00:04:41;101201.75;;;17.07;100.00
59103;BME280;43999;51.660;5.616;2023-07-20T00:07:08;101202.44;;;16.86;100.00
59103;BME280;43999;51.660;5.616;2023-07-20T00:09:36;101199.81;;;16.73;100.00
59103;BME280;43999;51.660;5.616;2023-07-20T00:12:04;101198.91;;;16.61;100.00
59103;BME280;43999;51.660;5.616;2023-07-20T00:14:31;101192.59;;;16.51;100.00
59103;BME280;43999;51.660;5.616;2023-07-20T00:16:59;101191.16;;;16.47;100.00
59103;BME280;43999;51.660;5.616;2023-07-20T00:19:27;101194.03;;;16.44;100.00
59103;BME280;43999;51.660;5.616;2023-07-20T00:21:56;101198.56;;;16.42;100.00
59103;BME280;43999;51.660;5.616;2023-07-20T00:24:23;101197.97;;;16.38;100.00
59103;BME280;43999;51.660;5.616;2023-07-20T00:26:51;101196.47;;;16.34;100.00
59103;BME280;43999;51.660;5.616;2023-07-20T00:29:18;101195.97;;;16.29;100.00
59103;BME280;43999;51.660;5.616;2023-07-20T00:31:46;101195.38;;;16.25;100.00
59103;BME280;43999;51.660;5.616;2023-07-20T00:34:16;101189.88;;;16.16;100.00
59103;BME280;43999;51.660;5.616;2023-07-20T00:36:43;101196.03;;;16.16;100.00
59103;BME280;43999;51.660;5.616;2023-07-20T00:39:11;101190.22;;;16.11;100.00
59103;BME280;43999;51.660;5.616;2023-07-20T00:41:38;101192.13;;;16.09;100.00
59103;BME280;43999;51.660;5.616;2023-07-20T00:44:06;101194.88;;;16.07;100.00
59103;BME280;43999;51.660;5.616;2023-07-20T00:46:33;101201.09;;;16.06;100.00
59103;BME280;43999;51.660;5.616;2023-07-20T00:49:02;101195.81;;;16.06;100.00
59103;BME280;43999;51.660;5.616;2023-07-20T00:51:30;101194.16;;;16.05;100.00
59103;BME280;43999;51.660;5.616;2023-07-20T00:53:57;101194.25;;;16.04;100.00
59103;BME280;43999;51.660;5.616;2023-07-20T00:56:25;101196.16;;;16.02;100.00
59103;BME280;43999;51.660;5.616;2023-07-20T00:58:53;101197.34;;;15.98;100.00
59103;BME280;43999;51.660;5.616;2023-07-20T01:01:22;101195.03;;;15.93;100.00
59103;BME280;43999;51.660;5.616;2023-07-20T01:03:50;101198.81;;;15.89;100.00
59103;BME280;43999;51.660;5.616;2023-07-20T01:09:14;101198.44;;;15.82;100.00
59103;BME280;43999;51.660;5.616;2023-07-20T01:12:08;101197.91;;;15.77;100.00
59103;BME280;43999;51.660;5.616;2023-07-20T01:14:45;101205.06;;;15.75;100.00
59103;BME280;43999;51.660;5.616;2023-07-20T01:17:12;101202.72;;;15.70;100.00
59103;BME280;43999;51.660;5.616;2023-07-20T01:19:40;101204.63;;;15.68;100.00
59103;BME280;43999;51.660;5.616;2023-07-20T01:25:08;101202.44;;;15.62;100.00
59103;BME280;43999;51.660;5.616;2023-07-20T01:28:00;101199.78;;;15.62;100.00
59103;BME280;43999;51.660;5.616;2023-07-20T01:33:42;101207.59;;;15.64;100.00
59103;BME280;43999;51.660;5.616;2023-07-20T01:36:11;101203.16;;;15.64;100.00
59103;BME280;43999;51.660;5.616;2023-07-20T01:38:40;101198.75;;;15.65;100.00
59103;BME280;43999;51.660;5.616;2023-07-20T01:41:08;101198.41;;;15.69;100.00
59103;BME280;43999;51.660;5.616;2023-07-20T01:43:37;101207.28;;;15.68;100.00
59103;BME280;43999;51.660;5.616;2023-07-20T01:46:05;101204.03;;;15.65;100.00
59103;BME280;43999;51.660;5.616;2023-07-20T01:48:32;101207.38;;;15.67;100.00
59103;BME280;43999;51.660;5.616;2023-07-20T01:51:01;101208.22;;;15.67;100.00
59103;BME280;43999;51.660;5.616;2023-07-20T01:53:29;101203.16;;;15.64;100.00
59103;BME280;43999;51.660;5.616;2023-07-20T01:55:57;101209.41;;;15.63;100.00
59103;BME280;43999;51.660;5.616;2023-07-20T01:58:24;101206.97;;;15.60;100.00
59103;BME280;43999;51.660;5.616;2023-07-20T02:00:52;101213.19;;;15.59;100.00
59103;BME280;43999;51.660;5.616;2023-07-20T02:03:19;101216.91;;;15.56;100.00
59103;BME280;43999;51.660;5.616;2023-07-20T02:05:49;101219.94;;;15.50;100.00
59103;BME280;43999;51.660;5.616;2023-07-20T02:08:16;101209.09;;;15.42;100.00
59103;BME280;43999;51.660;5.616;2023-07-20T02:10:47;101215.50;;;15.38;100.00
59103;BME280;43999;51.660;5.616;2023-07-20T02:13:16;101214.88;;;15.34;100.00
59103;BME280;43999;51.660;5.616;2023-07-20T02:15:44;101218.66;;;15.30;100.00
59103;BME280;43999;51.660;5.616;2023-07-20T02:18:11;101221.53;;;15.27;100.00
59103;BME280;43999;51.660;5.616;2023-07-20T02:20:41;101221.94;;;15.21;100.00
59103;BME280;43999;51.660;5.616;2023-07-20T02:23:10;101215.91;;;15.19;100.00
59103;BME280;43999;51.660;5.616;2023-07-20T02:25:38;101221.00;;;15.22;100.00
59103;BME280;43999;51.660;5.616;2023-07-20T02:28:07;101219.59;;;15.16;100.00
59103;BME280;43999;51.660;5.616;2023-07-20T02:30:39;101217.06;;;15.15;100.00
59103;BME280;43999;51.660;5.616;2023-07-20T02:33:07;101226.06;;;15.12;100.00
59103;BME280;43999;51.660;5.616;2023-07-20T02:35:35;101233.09;;;15.12;100.00
59103;BME280;43999;51.660;5.616;2023-07-20T02:38:03;101237.44;;;15.13;100.00
59103;BME280;43999;51.660;5.616;2023-07-20T02:40:31;101234.72;;;15.14;100.00
59103;BME280;43999;51.660;5.616;2023-07-20T02:42:58;101233.22;;;15.10;100.00
59103;BME280;43999;51.660;5.616;2023-07-20T02:45:26;101233.78;;;15.15;100.00
59103;BME280;43999;51.660;5.616;2023-07-20T02:47:53;101230.25;;;15.15;100.00
59103;BME280;43999;51.660;5.616;2023-07-20T02:50:21;101231.13;;;15.15;100.00
59103;BME280;43999;51.660;5.616;2023-07-20T02:52:49;101239.06;;;15.15;100.00
59103;BME280;43999;51.660;5.616;2023-07-20T02:55:17;101249.50;;;15.17;100.00
59103;BME280;43999;51.660;5.616;2023-07-20T02:57:44;101247.06;;;15.14;100.00
59103;BME280;43999;51.660;5.616;2023-07-20T03:00:12;101254.88;;;15.15;100.00
59103;BME280;43999;51.660;5.616;2023-07-20T03:02:43;101254.22;;;15.12;100.00
59103;BME280;43999;51.660;5.616;2023-07-20T03:05:10;101258.78;;;15.10;100.00
59103;BME280;43999;51.660;5.616;2023-07-20T03:07:38;101260.69;;;15.08;100.00
59103;BME280;43999;51.660;5.616;2023-07-20T03:10:06;101261.59;;;15.06;100.00
59103;BME280;43999;51.660;5.616;2023-07-20T03:12:36;101268.78;;;15.04;100.00
59103;BME280;43999;51.660;5.616;2023-07-20T03:15:04;101260.13;;;15.02;100.00
59103;BME280;43999;51.660;5.616;2023-07-20T03:17:32;101267.28;;;15.00;100.00
59103;BME280;43999;51.660;5.616;2023-07-20T03:20:00;101268.34;;;14.98;100.00
59103;BME280;43999;51.660;5.616;2023-07-20T03:22:28;101274.78;;;14.94;100.00
59103;BME280;43999;51.660;5.616;2023-07-20T03:24:56;101272.13;;;14.94;100.00
59103;BME280;43999;51.660;5.616;2023-07-20T03:27:23;101278.66;;;14.88;100.00
59103;BME280;43999;51.660;5.616;2023-07-20T03:29:51;101270.84;;;14.86;100.00
59103;BME280;43999;51.660;5.616;2023-07-20T03:32:18;101266.50;;;14.85;100.00
59103;BME280;43999;51.660;5.616;2023-07-20T03:34:46;101271.97;;;14.82;100.00
59103;BME280;43999;51.660;5.616;2023-07-20T03:37:14;101256.53;;;14.76;100.00
59103;BME280;43999;51.660;5.616;2023-07-20T03:39:41;101268.78;;;14.77;100.00
59103;BME280;43999;51.660;5.616;2023-07-20T03:42:09;101271.53;;;14.76;100.00
59103;BME280;43999;51.660;5.616;2023-07-20T03:44:36;101274.38;;;14.73;100.00
59103;BME280;43999;51.660;5.616;2023-07-20T03:47:04;101265.03;;;14.67;100.00
59103;BME280;43999;51.660;5.616;2023-07-20T03:49:32;101277.59;;;14.63;100.00
59103;BME280;43999;51.660;5.616;2023-07-20T03:52:00;101278.69;;;14.59;100.00
59103;BME280;43999;51.660;5.616;2023-07-20T03:54:30;101281.44;;;14.58;100.00
59103;BME280;43999;51.660;5.616;2023-07-20T03:56:57;101279.84;;;14.55;100.00
59103;BME280;43999;51.660;5.616;2023-07-20T03:59:25;101281.53;;;14.56;100.00
59103;BME280;43999;51.660;5.616;2023-07-20T04:01:52;101285.97;;;14.56;100.00
59103;BME280;43999;51.660;5.616;2023-07-20T04:04:20;101285.97;;;14.56;100.00
59103;BME280;43999;51.660;5.616;2023-07-20T04:06:47;101292.16;;;14.55;100.00
59103;BME280;43999;51.660;5.616;2023-07-20T04:09:14;101284.34;;;14.53;100.00
59103;BME280;43999;51.660;5.616;2023-07-20T04:11:42;101286.16;;;14.52;100.00
59103;BME280;43999;51.660;5.616;2023-07-20T04:14:09;101284.44;;;14.51;100.00
59103;BME280;43999;51.660;5.616;2023-07-20T04:16:37;101285.50;;;14.49;100.00
59103;BME280;43999;51.660;5.616;2023-07-20T04:19:04;101288.34;;;14.46;100.00
59103;BME280;43999;51.660;5.616;2023-07-20T04:21:32;101298.16;;;14.44;100.00
59103;BME280;43999;51.660;5.616;2023-07-20T04:23:59;101287.03;;;14.39;100.00
59103;BME280;43999;51.660;5.616;2023-07-20T04:26:29;101294.94;;;14.39;100.00
59103;BME280;43999;51.660;5.616;2023-07-20T04:28:58;101293.34;;;14.36;100.00
59103;BME280;43999;51.660;5.616;2023-07-20T04:31:35;101298.81;;;14.33;100.00
59103;BME280;43999;51.660;5.616;2023-07-20T04:34:03;101298.06;;;14.31;100.00
59103;BME280;43999;51.660;5.616;2023-07-20T04:36:33;101301.66;;;14.30;100.00
59103;BME280;43999;51.660;5.616;2023-07-20T04:39:01;101292.97;;;14.28;100.00
59103;BME280;43999;51.660;5.616;2023-07-20T04:41:34;101297.41;;;14.27;100.00
59103;BME280;43999;51.660;5.616;2023-07-20T04:44:03;101290.53;;;14.25;100.00
59103;BME280;43999;51.660;5.616;2023-07-20T04:46:31;101301.84;;;14.27;100.00
59103;BME280;43999;51.660;5.616;2023-07-20T04:49:01;101293.25;;;14.23;100.00
59103;BME280;43999;51.660;5.616;2023-07-20T04:51:31;101298.44;;;14.25;100.00
59103;BME280;43999;51.660;5.616;2023-07-20T04:53:59;101294.97;;;14.24;100.00
59103;BME280;43999;51.660;5.616;2023-07-20T04:56:31;101304.75;;;14.22;100.00
59103;BME280;43999;51.660;5.616;2023-07-20T04:59:00;101299.41;;;14.24;100.00
59103;BME280;43999;51.660;5.616;2023-07-20T05:01:27;101300.97;;;14.26;100.00
59103;BME280;43999;51.660;5.616;2023-07-20T05:03:55;101299.94;;;14.29;100.00
59103;BME280;43999;51.660;5.616;2023-07-20T05:06:22;101302.50;;;14.30;100.00
59103;BME280;43999;51.660;5.616;2023-07-20T05:08:50;101290.03;;;14.32;100.00
59103;BME280;43999;51.660;5.616;2023-07-20T05:11:18;101298.81;;;14.33;100.00
59103;BME280;43999;51.660;5.616;2023-07-20T05:13:46;101303.22;;;14.32;100.00
59103;BME280;43999;51.660;5.616;2023-07-20T05:16:13;101297.97;;;14.32;100.00
59103;BME280;43999;51.660;5.616;2023-07-20T05:18:41;101294.38;;;14.33;100.00
59103;BME280;43999;51.660;5.616;2023-07-20T05:21:10;101302.00;;;14.38;100.00
59103;BME280;43999;51.660;5.616;2023-07-20T05:23:37;101307.00;;;14.43;100.00
59103;BME280;43999;51.660;5.616;2023-07-20T05:26:05;101299.19;;;14.41;100.00
59103;BME280;43999;51.660;5.616;2023-07-20T05:28:33;101306.50;;;14.50;100.00
59103;BME280;43999;51.660;5.616;2023-07-20T05:31:03;101306.31;;;14.53;100.00
59103;BME280;43999;51.660;5.616;2023-07-20T05:33:31;101314.03;;;14.57;100.00
59103;BME280;43999;51.660;5.616;2023-07-20T05:35:58;101310.34;;;14.59;100.00
59103;BME280;43999;51.660;5.616;2023-07-20T05:38:25;101310.28;;;14.61;100.00
59103;BME280;43999;51.660;5.616;2023-07-20T05:41:00;101305.88;;;14.61;100.00
59103;BME280;43999;51.660;5.616;2023-07-20T05:43:29;101310.94;;;14.64;100.00
59103;BME280;43999;51.660;5.616;2023-07-20T05:45:57;101297.75;;;14.64;100.00
59103;BME280;43999;51.660;5.616;2023-07-20T05:48:24;101312.13;;;14.73;100.00
59103;BME280;43999;51.660;5.616;2023-07-20T05:50:52;101311.84;;;14.78;100.00
59103;BME280;43999;51.660;5.616;2023-07-20T05:53:19;101324.63;;;14.84;100.00
59103;BME280;43999;51.660;5.616;2023-07-20T05:55:55;101334.59;;;14.93;100.00
59103;BME280;43999;51.660;5.616;2023-07-20T05:58:34;101336.84;;;14.99;100.00
59103;BME280;43999;51.660;5.616;2023-07-20T06:01:04;101340.16;;;15.03;100.00
59103;BME280;43999;51.660;5.616;2023-07-20T06:03:33;101341.53;;;15.09;100.00
59103;BME280;43999;51.660;5.616;2023-07-20T06:06:01;101334.06;;;15.15;100.00
59103;BME280;43999;51.660;5.616;2023-07-20T06:08:30;101346.56;;;15.26;100.00
59103;BME280;43999;51.660;5.616;2023-07-20T06:10:58;101340.88;;;15.32;100.00
59103;BME280;43999;51.660;5.616;2023-07-20T06:13:25;101349.97;;;15.41;100.00
59103;BME280;43999;51.660;5.616;2023-07-20T06:15:53;101348.00;;;15.45;100.00
59103;BME280;43999;51.660;5.616;2023-07-20T06:18:22;101354.75;;;15.49;100.00
59103;BME280;43999;51.660;5.616;2023-07-20T06:20:51;101346.09;;;15.47;100.00
59103;BME280;43999;51.660;5.616;2023-07-20T06:23:19;101346.41;;;15.42;100.00
59103;BME280;43999;51.660;5.616;2023-07-20T06:25:47;101344.91;;;15.38;100.00
59103;BME280;43999;51.660;5.616;2023-07-20T06:28:15;101345.00;;;15.36;100.00
59103;BME280;43999;51.660;5.616;2023-07-20T06:30:43;101347.63;;;15.36;100.00
59103;BME280;43999;51.660;5.616;2023-07-20T06:33:10;101347.53;;;15.38;100.00
59103;BME280;43999;51.660;5.616;2023-07-20T06:35:40;101348.31;;;15.40;100.00
59103;BME280;43999;51.660;5.616;2023-07-20T06:38:08;101352.97;;;15.49;100.00
59103;BME280;43999;51.660;5.616;2023-07-20T06:40:38;101353.50;;;15.54;100.00
59103;BME280;43999;51.660;5.616;2023-07-20T06:43:06;101355.94;;;15.57;100.00
59103;BME280;43999;51.660;5.616;2023-07-20T06:45:36;101347.91;;;15.59;100.00
59103;BME280;43999;51.660;5.616;2023-07-20T06:48:04;101351.09;;;15.64;100.00
59103;BME280;43999;51.660;5.616;2023-07-20T06:50:31;101350.69;;;15.70;100.00
59103;BME280;43999;51.660;5.616;2023-07-20T06:53:00;101349.44;;;15.76;100.00
59103;BME280;43999;51.660;5.616;2023-07-20T06:55:30;101354.84;;;15.87;100.00
59103;BME280;43999;51.660;5.616;2023-07-20T06:58:07;101346.19;;;15.98;100.00
59103;BME280;43999;51.660;5.616;2023-07-20T07:00:34;101358.56;;;16.10;100.00
59103;BME280;43999;51.660;5.616;2023-07-20T07:03:02;101350.72;;;16.22;100.00
59103;BME280;43999;51.660;5.616;2023-07-20T07:05:29;101352.00;;;16.29;100.00
59103;BME280;43999;51.660;5.616;2023-07-20T07:08:00;101359.28;;;16.38;100.00
59103;BME280;43999;51.660;5.616;2023-07-20T07:10:27;101352.28;;;16.50;100.00
59103;BME280;43999;51.660;5.616;2023-07-20T07:12:55;101356.72;;;16.62;100.00
59103;BME280;43999;51.660;5.616;2023-07-20T07:15:22;101351.38;;;16.75;100.00
59103;BME280;43999;51.660;5.616;2023-07-20T07:17:49;101358.66;;;16.84;100.00
59103;BME280;43999;51.660;5.616;2023-07-20T07:20:17;101356.00;;;16.84;100.00
59103;BME280;43999;51.660;5.616;2023-07-20T07:22:50;101350.63;;;16.86;100.00
59103;BME280;43999;51.660;5.616;2023-07-20T07:25:19;101357.19;;;16.93;100.00
59103;BME280;43999;51.660;5.616;2023-07-20T07:27:52;101368.16;;;17.00;100.00
59103;BME280;43999;51.660;5.616;2023-07-20T07:30:20;101361.16;;;17.12;100.00
59103;BME280;43999;51.660;5.616;2023-07-20T07:32:48;101366.88;;;17.30;100.00
59103;BME280;43999;51.660;5.616;2023-07-20T07:35:16;101374.41;;;17.47;100.00
59103;BME280;43999;51.660;5.616;2023-07-20T07:37:43;101367.00;;;17.64;100.00
59103;BME280;43999;51.660;5.616;2023-07-20T07:40:30;101361.97;;;17.72;100.00
59103;BME280;43999;51.660;5.616;2023-07-20T07:42:58;101362.25;;;17.80;100.00
59103;BME280;43999;51.660;5.616;2023-07-20T07:45:26;101369.53;;;17.89;100.00
59103;BME280;43999;51.660;5.616;2023-07-20T07:47:53;101369.41;;;18.02;100.00
59103;BME280;43999;51.660;5.616;2023-07-20T07:50:21;101378.13;;;18.16;100.00
59103;BME280;43999;51.660;5.616;2023-07-20T07:52:48;101370.88;;;18.29;100.00
59103;BME280;43999;51.660;5.616;2023-07-20T07:55:16;101378.88;;;18.40;100.00
59103;BME280;43999;51.660;5.616;2023-07-20T07:57:45;101375.81;;;18.45;100.00
59103;BME280;43999;51.660;5.616;2023-07-20T08:00:15;101376.44;;;18.49;100.00
59103;BME280;43999;51.660;5.616;2023-07-20T08:02:46;101373.41;;;18.53;100.00
59103;BME280;43999;51.660;5.616;2023-07-20T08:05:15;101379.69;;;18.52;100.00
59103;BME280;43999;51.660;5.616;2023-07-20T08:07:43;101385.47;;;18.57;100.00
59103;BME280;43999;51.660;5.616;2023-07-20T08:10:10;101380.16;;;18.69;100.00
59103;BME280;43999;51.660;5.616;2023-07-20T08:12:38;101388.84;;;18.71;100.00
59103;BME280;43999;51.660;5.616;2023-07-20T08:15:06;101383.53;;;18.71;100.00
59103;BME280;43999;51.660;5.616;2023-07-20T08:17:34;101394.25;;;18.80;100.00
59103;BME280;43999;51.660;5.616;2023-07-20T08:20:02;101384.38;;;18.94;100.00
59103;BME280;43999;51.660;5.616;2023-07-20T08:22:30;101385.00;;;19.30;100.00
59103;BME280;43999;51.660;5.616;2023-07-20T08:24:57;101392.19;;;19.39;100.00
59103;BME280;43999;51.660;5.616;2023-07-20T08:27:25;101392.19;;;19.39;100.00
59103;BME280;43999;51.660;5.616;2023-07-20T08:29:52;101390.19;;;19.31;100.00
59103;BME280;43999;51.660;5.616;2023-07-20T08:32:20;101392.38;;;19.26;100.00
59103;BME280;43999;51.660;5.616;2023-07-20T08:34:47;101389.72;;;19.26;100.00
59103;BME280;43999;51.660;5.616;2023-07-20T08:37:15;101389.53;;;19.39;100.00
59103;BME280;43999;51.660;5.616;2023-07-20T08:39:43;101387.63;;;19.41;100.00
59103;BME280;43999;51.660;5.616;2023-07-20T08:42:10;101388.69;;;19.71;100.00
59103;BME280;43999;51.660;5.616;2023-07-20T08:44:42;101384.59;;;20.09;100.00
59103;BME280;43999;51.660;5.616;2023-07-20T08:47:14;101380.06;;;20.21;100.00
59103;BME280;43999;51.660;5.616;2023-07-20T08:49:43;101382.44;;;20.24;100.00
59103;BME280;43999;51.660;5.616;2023-07-20T08:52:14;101391.78;;;20.18;100.00
59103;BME280;43999;51.660;5.616;2023-07-20T08:54:42;101386.00;;;20.03;100.00
59103;BME280;43999;51.660;5.616;2023-07-20T08:57:11;101391.22;;;19.94;100.00
59103;BME280;43999;51.660;5.616;2023-07-20T08:59:41;101388.66;;;19.82;100.00
59103;BME280;43999;51.660;5.616;2023-07-20T09:02:14;101387.13;;;19.68;100.00
59103;BME280;43999;51.660;5.616;2023-07-20T09:04:45;101381.88;;;19.57;100.00
59103;BME280;43999;51.660;5.616;2023-07-20T09:07:14;101395.94;;;19.48;100.00
59103;BME280;43999;51.660;5.616;2023-07-20T09:09:42;101392.31;;;19.38;100.00
59103;BME280;43999;51.660;5.616;2023-07-20T09:12:14;101393.09;;;19.28;100.00
59103;BME280;43999;51.660;5.616;2023-07-20T09:14:44;101393.84;;;19.19;100.00
59103;BME280;43999;51.660;5.616;2023-07-20T09:17:15;101393.75;;;19.09;100.00
59103;BME280;43999;51.660;5.616;2023-07-20T09:19:50;101388.34;;;18.99;100.00
59103;BME280;43999;51.660;5.616;2023-07-20T09:22:18;101387.03;;;18.94;100.00
59103;BME280;43999;51.660;5.616;2023-07-20T09:24:46;101376.06;;;18.87;100.00
59103;BME280;43999;51.660;5.616;2023-07-20T09:27:14;101391.63;;;18.92;100.00
59103;BME280;43999;51.660;5.616;2023-07-20T09:29:49;101385.69;;;18.99;100.00
59103;BME280;43999;51.660;5.616;2023-07-20T09:32:19;101387.13;;;19.36;100.00
59103;BME280;43999;51.660;5.616;2023-07-20T09:34:51;101398.94;;;19.97;100.00
59103;BME280;43999;51.660;5.616;2023-07-20T09:37:23;101388.03;;;20.21;100.00
59103;BME280;43999;51.660;5.616;2023-07-20T09:39:52;101381.75;;;20.22;100.00
59103;BME280;43999;51.660;5.616;2023-07-20T09:42:23;101374.16;;;20.17;100.00
59103;BME280;43999;51.660;5.616;2023-07-20T09:44:56;101378.47;;;20.39;100.00
59103;BME280;43999;51.660;5.616;2023-07-20T09:47:24;101374.00;;;20.81;100.00
59103;BME280;43999;51.660;5.616;2023-07-20T09:49:59;101369.25;;;20.84;100.00
59103;BME280;43999;51.660;5.616;2023-07-20T09:52:30;101370.94;;;20.85;99.66
59103;BME280;43999;51.660;5.616;2023-07-20T09:55:03;101376.16;;;21.16;100.00
59103;BME280;43999;51.660;5.616;2023-07-20T09:57:33;101360.03;;;21.37;97.37
59103;BME280;43999;51.660;5.616;2023-07-20T10:00:07;101378.56;;;21.88;97.14
59103;BME280;43999;51.660;5.616;2023-07-20T10:02:46;101376.00;;;22.43;96.79
59103;BME280;43999;51.660;5.616;2023-07-20T10:05:19;101374.75;;;22.93;95.81
59103;BME280;43999;51.660;5.616;2023-07-20T10:07:50;101364.78;;;23.31;90.10
59103;BME280;43999;51.660;5.616;2023-07-20T10:10:41;101365.19;;;23.36;84.54
59103;BME280;43999;51.660;5.616;2023-07-20T10:13:17;101368.38;;;23.22;82.37
59103;BME280;43999;51.660;5.616;2023-07-20T10:15:56;101362.59;;;22.99;82.48
59103;BME280;43999;51.660;5.616;2023-07-20T10:18:54;101367.72;;;22.92;83.57
59103;BME280;43999;51.660;5.616;2023-07-20T10:21:26;101371.22;;;22.74;82.43
59103;BME280;43999;51.660;5.616;2023-07-20T10:23:57;101369.31;;;22.57;81.65
59103;BME280;43999;51.660;5.616;2023-07-20T10:26:26;101369.81;;;22.43;83.22
59103;BME280;43999;51.660;5.616;2023-07-20T10:28:54;101372.41;;;22.34;84.26
59103;BME280;43999;51.660;5.616;2023-07-20T10:31:24;101366.50;;;22.31;84.96
59103;BME280;43999;51.660;5.616;2023-07-20T10:33:59;101360.31;;;22.30;84.08
59103;BME280;43999;51.660;5.616;2023-07-20T10:36:28;101358.75;;;22.65;85.51
59103;BME280;43999;51.660;5.616;2023-07-20T10:38:58;101346.41;;;23.00;84.30
59103;BME280;43999;51.660;5.616;2023-07-20T10:41:39;101362.88;;;23.23;77.33
59103;BME280;43999;51.660;5.616;2023-07-20T10:44:09;101356.75;;;23.49;77.24
59103;BME280;43999;51.660;5.616;2023-07-20T10:49:09;101345.09;;;24.37;75.37
59103;BME280;43999;51.660;5.616;2023-07-20T10:51:47;101346.16;;;24.18;70.09
59103;BME280;43999;51.660;5.616;2023-07-20T10:56:46;101344.06;;;23.95;71.36
59103;BME280;43999;51.660;5.616;2023-07-20T11:01:58;101336.94;;;24.90;72.46
59103;BME280;43999;51.660;5.616;2023-07-20T11:04:42;101334.94;;;25.16;71.96
59103;BME280;43999;51.660;5.616;2023-07-20T11:07:16;101336.09;;;25.05;67.16
59103;BME280;43999;51.660;5.616;2023-07-20T11:09:45;101332.88;;;24.94;64.34
59103;BME280;43999;51.660;5.616;2023-07-20T11:12:17;101338.94;;;25.12;64.03
59103;BME280;43999;51.660;5.616;2023-07-20T11:14:56;101336.09;;;24.97;63.51
59103;BME280;43999;51.660;5.616;2023-07-20T11:17:31;101338.09;;;24.95;64.04
59103;BME280;43999;51.660;5.616;2023-07-20T11:20:03;101336.41;;;24.86;62.29
59103;BME280;43999;51.660;5.616;2023-07-20T11:22:35;101331.19;;;24.68;62.54
59103;BME280;43999;51.660;5.616;2023-07-20T11:25:03;101332.19;;;24.67;63.60
59103;BME280;43999;51.660;5.616;2023-07-20T11:27:30;101328.09;;;24.55;64.76
59103;BME280;43999;51.660;5.616;2023-07-20T11:29:58;101324.03;;;24.42;61.85
59103;BME280;43999;51.660;5.616;2023-07-20T11:32:25;101326.13;;;24.22;61.66
59103;BME280;43999;51.660;5.616;2023-07-20T11:34:53;101322.78;;;24.20;62.86
59103;BME280;43999;51.660;5.616;2023-07-20T11:37:20;101317.09;;;24.23;62.71
59103;BME280;43999;51.660;5.616;2023-07-20T11:39:48;101308.94;;;24.33;61.78
59103;BME280;43999;51.660;5.616;2023-07-20T11:42:15;101304.53;;;24.24;62.99
59103;BME280;43999;51.660;5.616;2023-07-20T11:44:51;101313.25;;;24.26;63.50
59103;BME280;43999;51.660;5.616;2023-07-20T11:47:19;101311.94;;;24.30;63.16
59103;BME280;43999;51.660;5.616;2023-07-20T11:49:47;101302.22;;;24.29;61.89
59103;BME280;43999;51.660;5.616;2023-07-20T11:52:22;101312.06;;;24.20;63.00
59103;BME280;43999;51.660;5.616;2023-07-20T11:54:51;101300.75;;;24.00;60.62
59103;BME280;43999;51.660;5.616;2023-07-20T11:57:20;101304.00;;;23.86;60.97
59103;BME280;43999;51.660;5.616;2023-07-20T12:00:02;101301.00;;;23.89;63.33
59103;BME280;43999;51.660;5.616;2023-07-20T12:02:36;101308.63;;;24.02;64.33
59103;BME280;43999;51.660;5.616;2023-07-20T12:05:05;101300.00;;;24.16;62.08
59103;BME280;43999;51.660;5.616;2023-07-20T12:07:36;101300.63;;;24.10;60.68
59103;BME280;43999;51.660;5.616;2023-07-20T12:10:10;101297.59;;;24.05;61.09
59103;BME280;43999;51.660;5.616;2023-07-20T12:12:41;101300.06;;;23.98;61.08
59103;BME280;43999;51.660;5.616;2023-07-20T12:15:20;101288.81;;;23.86;61.80
59103;BME280;43999;51.660;5.616;2023-07-20T12:18:01;101292.56;;;23.75;62.35
59103;BME280;43999;51.660;5.616;2023-07-20T12:20:37;101293.50;;;23.66;61.13
59103;BME280;43999;51.660;5.616;2023-07-20T12:23:11;101295.53;;;23.64;62.19
59103;BME280;43999;51.660;5.616;2023-07-20T12:25:46;101292.84;;;23.64;62.93
59103;BME280;43999;51.660;5.616;2023-07-20T12:28:17;101287.22;;;23.75;64.03
59103;BME280;43999;51.660;5.616;2023-07-20T12:30:47;101283.63;;;23.85;62.30
59103;BME280;43999;51.660;5.616;2023-07-20T12:33:23;101290.38;;;23.97;60.67
59103;BME280;43999;51.660;5.616;2023-07-20T12:35:51;101292.56;;;24.02;60.84
59103;BME280;43999;51.660;5.616;2023-07-20T12:38:22;101290.53;;;23.95;62.49
59103;BME280;43999;51.660;5.616;2023-07-20T12:40:50;101282.81;;;23.92;61.71
59103;BME280;43999;51.660;5.616;2023-07-20T12:43:18;101275.03;;;23.81;61.28
59103;BME280;43999;51.660;5.616;2023-07-20T12:45:45;101282.84;;;23.74;60.18
59103;BME280;43999;51.660;5.616;2023-07-20T12:48:13;101281.28;;;23.63;61.06
59103;BME280;43999;51.660;5.616;2023-07-20T12:50:40;101273.88;;;23.57;62.21
59103;BME280;43999;51.660;5.616;2023-07-20T12:53:08;101276.94;;;23.62;61.79
59103;BME280;43999;51.660;5.616;2023-07-20T12:55:37;101284.97;;;23.62;61.33
59103;BME280;43999;51.660;5.616;2023-07-20T13:00:19;101281.09;;;23.57;62.14
59103;BME280;43999;51.660;5.616;2023-07-20T13:02:47;101279.00;;;23.42;61.28
59103;BME280;43999;51.660;5.616;2023-07-20T13:05:16;101289.56;;;23.26;62.25
59103;BME280;43999;51.660;5.616;2023-07-20T13:07:44;101281.38;;;23.09;63.25
59103;BME280;43999;51.660;5.616;2023-07-20T13:10:17;101286.78;;;23.00;63.77
59103;BME280;43999;51.660;5.616;2023-07-20T13:12:45;101275.34;;;22.89;64.15
59103;BME280;43999;51.660;5.616;2023-07-20T13:15:12;101274.75;;;22.78;64.92